Terminal Aerodrome Forecast
Issued by NWS

Home | Current Version | Previous Version | Text Only | Print | Product List | Glossary On
Versions: 1 2 3 4 5 6 7 8 9 10 11 12 13 14 15 16 17 18
000
FTUS42 KTBW 240900 AAC
TAFPGD
TAF AMD
KPGD 240959Z 2410/2506 VRB03KT 1/4SM FG BKN004
     FM241300 02006KT P6SM FEW250
     FM241700 25011KT P6SM FEW035 SCT250
     FM250300 VRB03KT P6SM FEW250=

USA.gov is the U.S. government's official web portal to all federal, state and local government web resources and services.